»·PEaware :: BREW17 KEND-KEND

BREW17 :: KEND-KEND

FLIGHT INFORMATION

Flight Status: Arrived
Operator: Unknown
More flights by this operator :: More flights under this callsign
Pilot: Michael B. (21837)
Aircraft: BEECH AIRCRAFT T-6A TEXAN
(TEX2)
More flights by this aircraft type
Origin: KEND Vance AFB
United States
Destination: KEND Vance AFB
United States
More flights between these airports :: More routes between these airports
Route: +END08 KPNC F22
File this flight plan on PilotEdge
Remarks:
Altitude:
(Current/Filed)
0ft
Speed:
(Current/Filed)
0kts
Departed: 30-Mar-20 07:31 AM
Arrived: 30-Mar-20 08:13 AM
Distance/Time
Traveled:
0nm/0:41
Distance/Time
To Go:
Arrived

Flight Plot

Page will automatically refresh every two minutes.


Map Options




Map Legend


Flown Route
Filed Route
Departure Airport
Arrival Airport
Navaid (VOR, NDB)
Fix

Horizontal Profiles

Position Reports

Time Latitude Longitude Heading Altitude Ground
Speed
30-Mar-20 07:29 36.330443 -97.591733 65 5079ft 223kts
30-Mar-20 07:30 36.356162 -97.520390 64 4562ft 248kts
30-Mar-20 07:31 36.386789 -97.444561 64 3493ft 221kts
30-Mar-20 07:32 36.422399 -97.385735 45 3587ft 219kts
30-Mar-20 07:33 36.462980 -97.325948 59 3510ft 231kts
30-Mar-20 07:34 36.491538 -97.254960 67 3636ft 228kts
30-Mar-20 07:35 36.529125 -97.191356 49 3572ft 233kts
30-Mar-20 07:36 36.574088 -97.134166 13 3601ft 222kts
30-Mar-20 07:37 36.634825 -97.121617 17 3457ft 232kts
30-Mar-20 07:38 36.691540 -97.100971 356 3150ft 212kts
30-Mar-20 07:39 36.750082 -97.094952 103 2469ft 184kts
30-Mar-20 07:40 36.728347 -97.111629 351 2483ft 189kts
30-Mar-20 07:42 36.743910 -97.099637 181 1025ft 126kts
30-Mar-20 07:43 36.727168 -97.107574 350 2223ft 147kts
30-Mar-20 07:44 36.747034 -97.099511 178 1188ft 123kts
30-Mar-20 07:45 36.710463 -97.100643 194 2011ft 157kts
30-Mar-20 07:46 36.653424 -97.095069 178 2534ft 238kts
30-Mar-20 07:47 36.592918 -97.097460 193 2894ft 198kts
30-Mar-20 07:48 36.539831 -97.117130 205 2736ft 197kts
30-Mar-20 07:49 36.509578 -97.167281 275 2798ft 199kts
30-Mar-20 07:50 36.486264 -97.220285 246 2618ft 209kts
30-Mar-20 07:51 36.459096 -97.268386 197 1876ft 170kts
30-Mar-20 07:52 36.425353 -97.275298 184 1372ft 121kts
30-Mar-20 07:53 36.391388 -97.277265 179 979ft 108kts
30-Mar-20 07:54 36.388054 -97.264261 6 2325ft 159kts
30-Mar-20 07:55 36.389780 -97.277267 178 982ft 86kts
30-Mar-20 07:56 36.346049 -97.272682 171 1824ft 213kts
30-Mar-20 07:57 36.376955 -97.255475 359 3291ft 203kts
30-Mar-20 07:58 36.416662 -97.268422 250 3351ft 151kts
30-Mar-20 07:59 36.406183 -97.328590 255 5323ft 195kts
30-Mar-20 08:00 36.396713 -97.396817 260 6012ft 212kts
30-Mar-20 08:01 36.388442 -97.475504 264 6152ft 238kts
30-Mar-20 08:01 36.382702 -97.542615 265 6123ft 227kts
30-Mar-20 08:03 36.374480 -97.636569 268 6230ft 227kts
30-Mar-20 08:04 36.369547 -97.713835 267 6057ft 228kts
30-Mar-20 08:04 36.368850 -97.781158 314 6037ft 223kts
30-Mar-20 08:06 36.441001 -97.785654 359 4974ft 209kts
30-Mar-20 08:06 36.484445 -97.797100 280 2991ft 207kts
30-Mar-20 08:07 36.493300 -97.867366 241 2313ft 206kts
30-Mar-20 08:09 36.441341 -97.909961 167 2310ft 207kts
30-Mar-20 08:10 36.384574 -97.908498 188 2258ft 204kts
30-Mar-20 08:10 36.339575 -97.909958 144 2351ft 163kts
30-Mar-20 08:12 36.348170 -97.910960 182 1344ft 120kts
30-Mar-20 08:12 36.334676 -97.911034 167 1290ft 28kts
30-Mar-20 08:13 36.333994 -97.909871 49 1291ft 0kts
30-Mar-20 08:14 36.333994 -97.909871 49 1291ft 0kts
30-Mar-20 08:15 36.333994 -97.909871 49 1291ft 0kts
30-Mar-20 08:16 36.333994 -97.909871 49 1291ft 0kts
30-Mar-20 08:17 36.333994 -97.909871 49 1291ft 0kts
30-Mar-20 08:18 36.333994 -97.909871 49 1291ft 0kts
30-Mar-20 08:19 36.333994 -97.909871 49 1291ft 0kts
30-Mar-20 08:22 36.333994 -97.909871 49 1291ft 0kts

Navigation Log

Ident Type
Flight plan parsing failed, navigation log unavailable